sensor_id;sensor_type;location;lat;lon;timestamp;temperature;humidity
8043;DHT22;4064;48.132;11.366;2022-07-12T00:00:12;15.60;99.90
8043;DHT22;4064;48.132;11.366;2022-07-12T00:02:38;15.60;99.90
8043;DHT22;4064;48.132;11.366;2022-07-12T00:05:04;15.70;99.90
8043;DHT22;4064;48.132;11.366;2022-07-12T00:07:30;15.70;99.90
8043;DHT22;4064;48.132;11.366;2022-07-12T00:09:56;15.70;99.90
8043;DHT22;4064;48.132;11.366;2022-07-12T00:12:21;15.70;99.90
8043;DHT22;4064;48.132;11.366;2022-07-12T00:14:47;15.70;99.90
8043;DHT22;4064;48.132;11.366;2022-07-12T00:17:13;15.70;99.90
8043;DHT22;4064;48.132;11.366;2022-07-12T00:19:39;15.80;99.90
8043;DHT22;4064;48.132;11.366;2022-07-12T00:22:05;15.80;99.90
8043;DHT22;4064;48.132;11.366;2022-07-12T00:24:30;15.80;99.90
8043;DHT22;4064;48.132;11.366;2022-07-12T00:26:56;15.90;99.90
8043;DHT22;4064;48.132;11.366;2022-07-12T00:29:22;15.80;99.90
8043;DHT22;4064;48.132;11.366;2022-07-12T00:31:47;15.80;99.90
8043;DHT22;4064;48.132;11.366;2022-07-12T00:34:13;15.90;99.90
8043;DHT22;4064;48.132;11.366;2022-07-12T00:36:39;15.80;99.90
8043;DHT22;4064;48.132;11.366;2022-07-12T00:39:04;15.70;99.90
8043;DHT22;4064;48.132;11.366;2022-07-12T00:41:30;15.70;99.90
8043;DHT22;4064;48.132;11.366;2022-07-12T00:43:56;15.70;99.90
8043;DHT22;4064;48.132;11.366;2022-07-12T00:46:23;15.80;99.90
8043;DHT22;4064;48.132;11.366;2022-07-12T00:48:50;15.80;99.90
8043;DHT22;4064;48.132;11.366;2022-07-12T00:51:18;15.70;99.90
8043;DHT22;4064;48.132;11.366;2022-07-12T00:53:44;15.70;99.90
8043;DHT22;4064;48.132;11.366;2022-07-12T00:56:10;15.70;99.90
8043;DHT22;4064;48.132;11.366;2022-07-12T00:58:37;15.70;99.90
8043;DHT22;4064;48.132;11.366;2022-07-12T01:01:03;15.50;99.90
8043;DHT22;4064;48.132;11.366;2022-07-12T01:03:29;15.40;99.90
8043;DHT22;4064;48.132;11.366;2022-07-12T01:05:55;15.30;99.90
8043;DHT22;4064;48.132;11.366;2022-07-12T01:08:21;15.30;99.90
8043;DHT22;4064;48.132;11.366;2022-07-12T01:10:48;15.20;99.90
8043;DHT22;4064;48.132;11.366;2022-07-12T01:13:15;15.20;99.90
8043;DHT22;4064;48.132;11.366;2022-07-12T01:15:41;15.10;99.90
8043;DHT22;4064;48.132;11.366;2022-07-12T01:18:09;15.10;99.90
8043;DHT22;4064;48.132;11.366;2022-07-12T01:20:35;15.00;99.90
8043;DHT22;4064;48.132;11.366;2022-07-12T01:23:01;15.00;99.90
8043;DHT22;4064;48.132;11.366;2022-07-12T01:25:27;14.90;99.90
8043;DHT22;4064;48.132;11.366;2022-07-12T01:27:53;14.90;99.90
8043;DHT22;4064;48.132;11.366;2022-07-12T01:30:19;14.80;99.90
8043;DHT22;4064;48.132;11.366;2022-07-12T01:32:45;14.80;99.90
8043;DHT22;4064;48.132;11.366;2022-07-12T01:35:11;14.70;99.90
8043;DHT22;4064;48.132;11.366;2022-07-12T01:37:40;14.70;99.90
8043;DHT22;4064;48.132;11.366;2022-07-12T01:40:08;14.60;99.90
8043;DHT22;4064;48.132;11.366;2022-07-12T01:42:35;14.50;99.90
8043;DHT22;4064;48.132;11.366;2022-07-12T01:45:03;14.40;99.90
8043;DHT22;4064;48.132;11.366;2022-07-12T01:47:30;14.40;99.90
8043;DHT22;4064;48.132;11.366;2022-07-12T01:49:56;14.40;99.90
8043;DHT22;4064;48.132;11.366;2022-07-12T01:52:22;14.30;99.90
8043;DHT22;4064;48.132;11.366;2022-07-12T01:54:48;14.30;99.90
8043;DHT22;4064;48.132;11.366;2022-07-12T01:57:14;14.30;99.90
8043;DHT22;4064;48.132;11.366;2022-07-12T01:59:41;14.30;99.90
8043;DHT22;4064;48.132;11.366;2022-07-12T02:02:07;14.20;99.90
8043;DHT22;4064;48.132;11.366;2022-07-12T02:04:33;14.20;99.90
8043;DHT22;4064;48.132;11.366;2022-07-12T02:06:59;14.10;99.90
8043;DHT22;4064;48.132;11.366;2022-07-12T02:09:26;14.10;99.90
8043;DHT22;4064;48.132;11.366;2022-07-12T02:11:52;14.00;99.90
8043;DHT22;4064;48.132;11.366;2022-07-12T02:14:18;14.00;99.90
8043;DHT22;4064;48.132;11.366;2022-07-12T02:16:44;14.00;99.90
8043;DHT22;4064;48.132;11.366;2022-07-12T02:19:11;14.00;99.90
8043;DHT22;4064;48.132;11.366;2022-07-12T02:21:37;14.00;99.90
8043;DHT22;4064;48.132;11.366;2022-07-12T02:24:04;14.00;99.90
8043;DHT22;4064;48.132;11.366;2022-07-12T02:26:29;13.90;99.90
8043;DHT22;4064;48.132;11.366;2022-07-12T02:28:55;14.00;99.90
8043;DHT22;4064;48.132;11.366;2022-07-12T02:31:21;14.00;99.90
8043;DHT22;4064;48.132;11.366;2022-07-12T02:33:47;13.90;99.90
8043;DHT22;4064;48.132;11.366;2022-07-12T02:36:13;13.90;99.90
8043;DHT22;4064;48.132;11.366;2022-07-12T02:38:38;13.90;99.90
8043;DHT22;4064;48.132;11.366;2022-07-12T02:41:04;13.90;99.90
8043;DHT22;4064;48.132;11.366;2022-07-12T02:43:30;14.00;99.90
8043;DHT22;4064;48.132;11.366;2022-07-12T02:46:08;13.90;99.90
8043;DHT22;4064;48.132;11.366;2022-07-12T02:48:34;13.80;99.90
8043;DHT22;4064;48.132;11.366;2022-07-12T02:51:00;13.70;99.90
8043;DHT22;4064;48.132;11.366;2022-07-12T02:53:27;13.70;99.90
8043;DHT22;4064;48.132;11.366;2022-07-12T02:55:52;13.70;99.90
8043;DHT22;4064;48.132;11.366;2022-07-12T02:58:19;13.70;99.90
8043;DHT22;4064;48.132;11.366;2022-07-12T03:00:44;13.60;99.90
8043;DHT22;4064;48.132;11.366;2022-07-12T03:03:11;13.60;99.90
8043;DHT22;4064;48.132;11.366;2022-07-12T03:05:38;13.50;99.90
8043;DHT22;4064;48.132;11.366;2022-07-12T03:08:05;13.60;99.90
8043;DHT22;4064;48.132;11.366;2022-07-12T03:10:31;13.50;99.90
8043;DHT22;4064;48.132;11.366;2022-07-12T03:12:57;13.50;99.90
8043;DHT22;4064;48.132;11.366;2022-07-12T03:15:23;13.50;99.90
8043;DHT22;4064;48.132;11.366;2022-07-12T03:17:48;13.50;99.90
8043;DHT22;4064;48.132;11.366;2022-07-12T03:20:14;13.50;99.90
8043;DHT22;4064;48.132;11.366;2022-07-12T03:22:44;13.40;99.90
8043;DHT22;4064;48.132;11.366;2022-07-12T03:25:12;13.40;99.90
8043;DHT22;4064;48.132;11.366;2022-07-12T03:27:38;13.30;99.90
8043;DHT22;4064;48.132;11.366;2022-07-12T03:30:04;13.30;99.90
8043;DHT22;4064;48.132;11.366;2022-07-12T03:32:30;13.20;99.90
8043;DHT22;4064;48.132;11.366;2022-07-12T03:34:56;13.20;99.90
8043;DHT22;4064;48.132;11.366;2022-07-12T03:37:22;13.20;99.90
8043;DHT22;4064;48.132;11.366;2022-07-12T03:39:47;13.20;99.90
8043;DHT22;4064;48.132;11.366;2022-07-12T03:42:13;13.20;99.90
8043;DHT22;4064;48.132;11.366;2022-07-12T03:44:39;13.20;99.90
8043;DHT22;4064;48.132;11.366;2022-07-12T03:47:05;13.20;99.90
8043;DHT22;4064;48.132;11.366;2022-07-12T03:49:31;13.10;99.90
8043;DHT22;4064;48.132;11.366;2022-07-12T03:51:57;13.20;99.90
8043;DHT22;4064;48.132;11.366;2022-07-12T03:54:22;13.10;99.90
8043;DHT22;4064;48.132;11.366;2022-07-12T03:56:48;13.20;99.90
8043;DHT22;4064;48.132;11.366;2022-07-12T03:59:32;13.10;99.90
8043;DHT22;4064;48.132;11.366;2022-07-12T04:01:58;13.10;99.90
8043;DHT22;4064;48.132;11.366;2022-07-12T04:04:24;13.10;99.90
8043;DHT22;4064;48.132;11.366;2022-07-12T04:06:50;13.20;99.90
8043;DHT22;4064;48.132;11.366;2022-07-12T04:09:15;13.10;99.90
8043;DHT22;4064;48.132;11.366;2022-07-12T04:11:41;13.20;99.90
8043;DHT22;4064;48.132;11.366;2022-07-12T04:14:07;13.20;99.90
8043;DHT22;4064;48.132;11.366;2022-07-12T04:16:32;13.20;99.90
8043;DHT22;4064;48.132;11.366;2022-07-12T04:18:58;13.20;99.90
8043;DHT22;4064;48.132;11.366;2022-07-12T04:21:24;13.20;99.90
8043;DHT22;4064;48.132;11.366;2022-07-12T04:23:50;13.20;99.90
8043;DHT22;4064;48.132;11.366;2022-07-12T04:26:16;13.30;99.90
8043;DHT22;4064;48.132;11.366;2022-07-12T04:28:45;13.20;99.90
8043;DHT22;4064;48.132;11.366;2022-07-12T04:31:10;13.20;99.90
8043;DHT22;4064;48.132;11.366;2022-07-12T04:33:36;13.20;99.90
8043;DHT22;4064;48.132;11.366;2022-07-12T04:36:02;13.20;99.90
8043;DHT22;4064;48.132;11.366;2022-07-12T04:38:28;13.20;99.90
8043;DHT22;4064;48.132;11.366;2022-07-12T04:40:53;13.30;99.90
8043;DHT22;4064;48.132;11.366;2022-07-12T04:43:19;13.30;99.90
8043;DHT22;4064;48.132;11.366;2022-07-12T04:45:45;13.40;99.90
8043;DHT22;4064;48.132;11.366;2022-07-12T04:48:11;13.40;99.90
8043;DHT22;4064;48.132;11.366;2022-07-12T04:50:37;13.60;99.90
8043;DHT22;4064;48.132;11.366;2022-07-12T04:53:03;13.60;99.90
8043;DHT22;4064;48.132;11.366;2022-07-12T04:55:29;13.70;99.90
8043;DHT22;4064;48.132;11.366;2022-07-12T04:57:54;13.80;99.90
8043;DHT22;4064;48.132;11.366;2022-07-12T05:00:21;13.90;99.90
8043;DHT22;4064;48.132;11.366;2022-07-12T05:02:46;14.00;99.90
8043;DHT22;4064;48.132;11.366;2022-07-12T05:05:12;14.00;99.90
8043;DHT22;4064;48.132;11.366;2022-07-12T05:07:40;14.10;99.90
8043;DHT22;4064;48.132;11.366;2022-07-12T05:10:06;14.20;99.90
8043;DHT22;4064;48.132;11.366;2022-07-12T05:12:31;14.30;99.90
8043;DHT22;4064;48.132;11.366;2022-07-12T05:14:57;14.40;99.90
8043;DHT22;4064;48.132;11.366;2022-07-12T05:17:23;14.60;99.90
8043;DHT22;4064;48.132;11.366;2022-07-12T05:19:49;14.80;99.90
8043;DHT22;4064;48.132;11.366;2022-07-12T05:22:14;14.90;99.90
8043;DHT22;4064;48.132;11.366;2022-07-12T05:24:40;15.00;99.90
8043;DHT22;4064;48.132;11.366;2022-07-12T05:27:06;15.10;99.90
8043;DHT22;4064;48.132;11.366;2022-07-12T05:29:31;15.20;99.90
8043;DHT22;4064;48.132;11.366;2022-07-12T05:31:57;15.30;99.90
8043;DHT22;4064;48.132;11.366;2022-07-12T05:34:23;15.40;99.90
8043;DHT22;4064;48.132;11.366;2022-07-12T05:36:49;15.50;99.90
8043;DHT22;4064;48.132;11.366;2022-07-12T05:39:15;15.60;99.90
8043;DHT22;4064;48.132;11.366;2022-07-12T05:41:40;15.60;99.90
8043;DHT22;4064;48.132;11.366;2022-07-12T05:44:06;15.60;99.90
8043;DHT22;4064;48.132;11.366;2022-07-12T05:46:32;15.80;99.90
8043;DHT22;4064;48.132;11.366;2022-07-12T05:48:57;15.90;99.90
8043;DHT22;4064;48.132;11.366;2022-07-12T05:51:23;16.10;99.90
8043;DHT22;4064;48.132;11.366;2022-07-12T05:54:07;16.20;99.90
8043;DHT22;4064;48.132;11.366;2022-07-12T05:56:33;16.30;99.90
8043;DHT22;4064;48.132;11.366;2022-07-12T05:58:59;16.40;99.90
8043;DHT22;4064;48.132;11.366;2022-07-12T06:01:24;16.60;99.90
8043;DHT22;4064;48.132;11.366;2022-07-12T06:03:50;16.60;99.90
8043;DHT22;4064;48.132;11.366;2022-07-12T06:06:16;16.60;99.90
8043;DHT22;4064;48.132;11.366;2022-07-12T06:08:42;16.60;99.90
8043;DHT22;4064;48.132;11.366;2022-07-12T06:11:08;16.70;99.90
8043;DHT22;4064;48.132;11.366;2022-07-12T06:13:33;16.80;99.90
8043;DHT22;4064;48.132;11.366;2022-07-12T06:15:59;16.90;99.90
8043;DHT22;4064;48.132;11.366;2022-07-12T06:18:25;17.10;99.90
8043;DHT22;4064;48.132;11.366;2022-07-12T06:20:51;17.30;99.90
8043;DHT22;4064;48.132;11.366;2022-07-12T06:23:17;17.40;99.90
8043;DHT22;4064;48.132;11.366;2022-07-12T06:25:43;17.40;99.90
8043;DHT22;4064;48.132;11.366;2022-07-12T06:28:09;17.60;99.90
8043;DHT22;4064;48.132;11.366;2022-07-12T06:30:35;17.70;99.90
8043;DHT22;4064;48.132;11.366;2022-07-12T06:33:01;17.90;99.90
8043;DHT22;4064;48.132;11.366;2022-07-12T06:35:27;17.90;99.90
8043;DHT22;4064;48.132;11.366;2022-07-12T06:37:53;18.00;99.90
8043;DHT22;4064;48.132;11.366;2022-07-12T06:40:19;18.10;99.90
8043;DHT22;4064;48.132;11.366;2022-07-12T06:42:45;18.30;99.90
8043;DHT22;4064;48.132;11.366;2022-07-12T06:45:11;18.50;99.90
8043;DHT22;4064;48.132;11.366;2022-07-12T06:47:37;18.70;99.90
8043;DHT22;4064;48.132;11.366;2022-07-12T06:50:03;18.90;99.90
8043;DHT22;4064;48.132;11.366;2022-07-12T06:52:29;19.00;99.90
8043;DHT22;4064;48.132;11.366;2022-07-12T06:54:55;19.10;99.90
8043;DHT22;4064;48.132;11.366;2022-07-12T06:57:21;19.20;99.90
8043;DHT22;4064;48.132;11.366;2022-07-12T06:59:47;19.20;99.90
8043;DHT22;4064;48.132;11.366;2022-07-12T07:02:13;19.30;99.90
8043;DHT22;4064;48.132;11.366;2022-07-12T07:04:39;19.40;99.90
8043;DHT22;4064;48.132;11.366;2022-07-12T07:07:05;19.50;99.90
8043;DHT22;4064;48.132;11.366;2022-07-12T07:09:31;19.70;99.90
8043;DHT22;4064;48.132;11.366;2022-07-12T07:11:56;19.80;99.90
8043;DHT22;4064;48.132;11.366;2022-07-12T07:14:22;20.00;99.90
8043;DHT22;4064;48.132;11.366;2022-07-12T07:16:48;20.10;99.90
8043;DHT22;4064;48.132;11.366;2022-07-12T07:19:14;20.20;99.90
8043;DHT22;4064;48.132;11.366;2022-07-12T07:21:39;20.40;99.90
8043;DHT22;4064;48.132;11.366;2022-07-12T07:24:05;20.80;99.90
8043;DHT22;4064;48.132;11.366;2022-07-12T07:26:31;21.30;99.90
8043;DHT22;4064;48.132;11.366;2022-07-12T07:28:58;21.70;99.80
8043;DHT22;4064;48.132;11.366;2022-07-12T07:31:42;22.00;98.70
8043;DHT22;4064;48.132;11.366;2022-07-12T07:34:08;22.60;97.00
8043;DHT22;4064;48.132;11.366;2022-07-12T07:36:34;23.00;97.60
8043;DHT22;4064;48.132;11.366;2022-07-12T07:39:00;23.40;95.20
8043;DHT22;4064;48.132;11.366;2022-07-12T07:41:26;23.80;95.30
8043;DHT22;4064;48.132;11.366;2022-07-12T07:43:51;24.20;94.10
8043;DHT22;4064;48.132;11.366;2022-07-12T07:46:17;24.30;92.30
8043;DHT22;4064;48.132;11.366;2022-07-12T07:48:43;24.40;91.50
8043;DHT22;4064;48.132;11.366;2022-07-12T07:51:08;24.50;90.70
8043;DHT22;4064;48.132;11.366;2022-07-12T07:53:34;24.40;89.70
8043;DHT22;4064;48.132;11.366;2022-07-12T07:56:00;24.30;87.20
8043;DHT22;4064;48.132;11.366;2022-07-12T07:58:26;24.40;86.00
8043;DHT22;4064;48.132;11.366;2022-07-12T08:00:52;24.90;85.00
8043;DHT22;4064;48.132;11.366;2022-07-12T08:03:19;25.30;82.80
8043;DHT22;4064;48.132;11.366;2022-07-12T08:05:45;25.60;82.00
8043;DHT22;4064;48.132;11.366;2022-07-12T08:08:11;25.80;78.70
8043;DHT22;4064;48.132;11.366;2022-07-12T08:10:37;25.80;77.30
8043;DHT22;4064;48.132;11.366;2022-07-12T08:13:03;25.50;75.80
8043;DHT22;4064;48.132;11.366;2022-07-12T08:15:29;25.50;76.60
8043;DHT22;4064;48.132;11.366;2022-07-12T08:17:55;25.00;75.20
8043;DHT22;4064;48.132;11.366;2022-07-12T08:20:24;25.00;74.80
8043;DHT22;4064;48.132;11.366;2022-07-12T08:22:50;25.60;73.20
8043;DHT22;4064;48.132;11.366;2022-07-12T08:25:16;25.80;73.50
8043;DHT22;4064;48.132;11.366;2022-07-12T08:27:42;26.30;72.30
8043;DHT22;4064;48.132;11.366;2022-07-12T08:30:09;26.50;72.10
8043;DHT22;4064;48.132;11.366;2022-07-12T08:32:36;26.30;67.00
8043;DHT22;4064;48.132;11.366;2022-07-12T08:35:02;25.50;68.70
8043;DHT22;4064;48.132;11.366;2022-07-12T08:37:28;24.90;68.90
8043;DHT22;4064;48.132;11.366;2022-07-12T08:39:53;24.40;69.00
8043;DHT22;4064;48.132;11.366;2022-07-12T08:42:19;24.00;69.10
8043;DHT22;4064;48.132;11.366;2022-07-12T08:44:54;24.20;69.20
8043;DHT22;4064;48.132;11.366;2022-07-12T08:47:21;24.00;71.90
8043;DHT22;4064;48.132;11.366;2022-07-12T08:50:09;24.80;72.90
8043;DHT22;4064;48.132;11.366;2022-07-12T08:52:40;25.00;68.60
8043;DHT22;4064;48.132;11.366;2022-07-12T08:57:48;24.60;68.30
8043;DHT22;4064;48.132;11.366;2022-07-12T09:00:15;24.40;69.60
8043;DHT22;4064;48.132;11.366;2022-07-12T09:05:12;23.70;71.70
8043;DHT22;4064;48.132;11.366;2022-07-12T09:07:38;23.50;71.50
8043;DHT22;4064;48.132;11.366;2022-07-12T09:10:05;24.00;71.00
8043;DHT22;4064;48.132;11.366;2022-07-12T09:12:33;24.40;68.30
8043;DHT22;4064;48.132;11.366;2022-07-12T09:18:03;24.30;65.70
8043;DHT22;4064;48.132;11.366;2022-07-12T09:20:31;23.80;67.30
8043;DHT22;4064;48.132;11.366;2022-07-12T09:23:05;23.60;66.70
8043;DHT22;4064;48.132;11.366;2022-07-12T09:25:31;23.20;65.90
8043;DHT22;4064;48.132;11.366;2022-07-12T09:28:03;22.90;68.50
8043;DHT22;4064;48.132;11.366;2022-07-12T09:30:30;23.10;69.30
8043;DHT22;4064;48.132;11.366;2022-07-12T09:33:06;23.40;70.90
8043;DHT22;4064;48.132;11.366;2022-07-12T09:40:59;23.80;66.60
8043;DHT22;4064;48.132;11.366;2022-07-12T09:43:26;23.60;67.00
8043;DHT22;4064;48.132;11.366;2022-07-12T09:45:52;23.60;68.70
8043;DHT22;4064;48.132;11.366;2022-07-12T09:48:22;24.10;69.20
8043;DHT22;4064;48.132;11.366;2022-07-12T09:50:49;25.00;67.60
8043;DHT22;4064;48.132;11.366;2022-07-12T09:53:21;25.10;66.10
8043;DHT22;4064;48.132;11.366;2022-07-12T09:55:50;25.10;65.40
8043;DHT22;4064;48.132;11.366;2022-07-12T09:58:36;25.30;65.50
8043;DHT22;4064;48.132;11.366;2022-07-12T10:01:06;25.60;64.80
8043;DHT22;4064;48.132;11.366;2022-07-12T10:03:32;25.40;64.00
8043;DHT22;4064;48.132;11.366;2022-07-12T10:06:01;25.30;63.40
8043;DHT22;4064;48.132;11.366;2022-07-12T10:08:30;24.80;62.90
8043;DHT22;4064;48.132;11.366;2022-07-12T10:10:56;24.40;63.90
8043;DHT22;4064;48.132;11.366;2022-07-12T10:13:22;24.20;65.60
8043;DHT22;4064;48.132;11.366;2022-07-12T10:15:49;23.90;65.90
8043;DHT22;4064;48.132;11.366;2022-07-12T10:18:18;23.70;66.90
8043;DHT22;4064;48.132;11.366;2022-07-12T10:20:46;23.50;66.60
8043;DHT22;4064;48.132;11.366;2022-07-12T10:23:30;23.40;67.00
8043;DHT22;4064;48.132;11.366;2022-07-12T10:25:56;23.70;68.80
8043;DHT22;4064;48.132;11.366;2022-07-12T10:28:22;23.70;68.80
8043;DHT22;4064;48.132;11.366;2022-07-12T10:30:50;23.80;68.80
8043;DHT22;4064;48.132;11.366;2022-07-12T10:33:21;23.90;69.50
8043;DHT22;4064;48.132;11.366;2022-07-12T10:36:00;23.90;67.70
8043;DHT22;4064;48.132;11.366;2022-07-12T10:38:26;24.00;67.20
8043;DHT22;4064;48.132;11.366;2022-07-12T10:40:53;24.10;67.10
8043;DHT22;4064;48.132;11.366;2022-07-12T10:43:27;24.60;67.20
8043;DHT22;4064;48.132;11.366;2022-07-12T10:46:18;24.70;67.60
8043;DHT22;4064;48.132;11.366;2022-07-12T10:48:46;24.30;66.70
8043;DHT22;4064;48.132;11.366;2022-07-12T10:51:14;24.10;68.00
8043;DHT22;4064;48.132;11.366;2022-07-12T10:53:40;24.10;68.40
8043;DHT22;4064;48.132;11.366;2022-07-12T10:58:57;24.50;65.90
8043;DHT22;4064;48.132;11.366;2022-07-12T11:01:31;24.70;67.60
8043;DHT22;4064;48.132;11.366;2022-07-12T11:04:07;24.80;67.40
8043;DHT22;4064;48.132;11.366;2022-07-12T11:06:40;24.60;65.90
8043;DHT22;4064;48.132;11.366;2022-07-12T11:09:11;24.90;66.20
8043;DHT22;4064;48.132;11.366;2022-07-12T11:11:44;25.30;65.30
8043;DHT22;4064;48.132;11.366;2022-07-12T11:14:11;25.60;63.90
8043;DHT22;4064;48.132;11.366;2022-07-12T11:16:45;25.20;64.00
8043;DHT22;4064;48.132;11.366;2022-07-12T11:19:11;25.10;64.90
8043;DHT22;4064;48.132;11.366;2022-07-12T11:21:36;25.30;64.10
8043;DHT22;4064;48.132;11.366;2022-07-12T11:24:02;25.70;64.10
8043;DHT22;4064;48.132;11.366;2022-07-12T11:26:40;26.10;61.10
8043;DHT22;4064;48.132;11.366;2022-07-12T11:29:06;26.00;59.20
8043;DHT22;4064;48.132;11.366;2022-07-12T11:31:32;25.90;60.50
8043;DHT22;4064;48.132;11.366;2022-07-12T11:33:58;25.80;61.90
8043;DHT22;4064;48.132;11.366;2022-07-12T11:36:26;25.70;62.50
8043;DHT22;4064;48.132;11.366;2022-07-12T11:38:53;25.90;63.40
8043;DHT22;4064;48.132;11.366;2022-07-12T11:41:18;26.40;61.10
8043;DHT22;4064;48.132;11.366;2022-07-12T11:43:45;26.80;60.00
8043;DHT22;4064;48.132;11.366;2022-07-12T11:46:12;27.00;59.50
8043;DHT22;4064;48.132;11.366;2022-07-12T11:48:38;26.80;59.10
8043;DHT22;4064;48.132;11.366;2022-07-12T11:51:11;26.30;58.20
8043;DHT22;4064;48.132;11.366;2022-07-12T11:53:38;25.80;58.30
8043;DHT22;4064;48.132;11.366;2022-07-12T11:56:06;25.30;59.60
8043;DHT22;4064;48.132;11.366;2022-07-12T11:58:33;25.10;61.10
8043;DHT22;4064;48.132;11.366;2022-07-12T12:01:04;25.40;60.60
8043;DHT22;4064;48.132;11.366;2022-07-12T12:03:30;25.90;59.80
8043;DHT22;4064;48.132;11.366;2022-07-12T12:05:58;26.10;59.70
8043;DHT22;4064;48.132;11.366;2022-07-12T12:08:24;26.40;59.60
8043;DHT22;4064;48.132;11.366;2022-07-12T12:11:00;26.80;58.70
8043;DHT22;4064;48.132;11.366;2022-07-12T12:13:27;27.00;57.30
8043;DHT22;4064;48.132;11.366;2022-07-12T12:15:58;27.20;56.80
8043;DHT22;4064;48.132;11.366;2022-07-12T12:18:38;26.70;56.90
8043;DHT22;4064;48.132;11.366;2022-07-12T12:21:09;26.60;57.10
8043;DHT22;4064;48.132;11.366;2022-07-12T12:23:36;27.00;58.80
8043;DHT22;4064;48.132;11.366;2022-07-12T12:26:13;27.10;57.80
8043;DHT22;4064;48.132;11.366;2022-07-12T12:28:47;26.60;57.70
8043;DHT22;4064;48.132;11.366;2022-07-12T12:31:16;26.60;57.00
8043;DHT22;4064;48.132;11.366;2022-07-12T12:33:50;26.70;58.20
8043;DHT22;4064;48.132;11.366;2022-07-12T12:36:36;26.50;57.30
8043;DHT22;4064;48.132;11.366;2022-07-12T12:39:02;26.10;56.50
8043;DHT22;4064;48.132;11.366;2022-07-12T12:41:37;26.50;57.50
8043;DHT22;4064;48.132;11.366;2022-07-12T12:44:06;27.00;56.30
8043;DHT22;4064;48.132;11.366;2022-07-12T12:46:55;26.90;55.90
8043;DHT22;4064;48.132;11.366;2022-07-12T12:49:50;26.70;56.50
8043;DHT22;4064;48.132;11.366;2022-07-12T12:52:16;26.60;57.30
8043;DHT22;4064;48.132;11.366;2022-07-12T12:54:43;26.30;55.80
8043;DHT22;4064;48.132;11.366;2022-07-12T12:57:10;26.10;56.50
8043;DHT22;4064;48.132;11.366;2022-07-12T12:59:37;26.20;55.40
8043;DHT22;4064;48.132;11.366;2022-07-12T13:02:04;25.90;55.20
8043;DHT22;4064;48.132;11.366;2022-07-12T13:04:32;25.70;55.80
8043;DHT22;4064;48.132;11.366;2022-07-12T13:06:58;25.70;56.90
8043;DHT22;4064;48.132;11.366;2022-07-12T13:09:25;26.00;56.40
8043;DHT22;4064;48.132;11.366;2022-07-12T13:11:51;26.70;56.20
8043;DHT22;4064;48.132;11.366;2022-07-12T13:14:17;27.20;55.20
8043;DHT22;4064;48.132;11.366;2022-07-12T13:16:42;27.00;55.10
8043;DHT22;4064;48.132;11.366;2022-07-12T13:19:08;26.90;55.60
8043;DHT22;4064;48.132;11.366;2022-07-12T13:21:34;26.70;55.30
8043;DHT22;4064;48.132;11.366;2022-07-12T13:24:00;26.90;55.20
8043;DHT22;4064;48.132;11.366;2022-07-12T13:26:25;26.70;55.80
8043;DHT22;4064;48.132;11.366;2022-07-12T13:28:53;26.90;55.40
8043;DHT22;4064;48.132;11.366;2022-07-12T13:31:19;27.00;54.80
8043;DHT22;4064;48.132;11.366;2022-07-12T13:33:45;26.70;54.60
8043;DHT22;4064;48.132;11.366;2022-07-12T13:36:12;26.60;54.60
8043;DHT22;4064;48.132;11.366;2022-07-12T13:38:38;26.80;55.40
8043;DHT22;4064;48.132;11.366;2022-07-12T13:41:04;27.20;54.80
8043;DHT22;4064;48.132;11.366;2022-07-12T13:43:30;27.40;53.00
8043;DHT22;4064;48.132;11.366;2022-07-12T13:45:59;27.70;53.80
8043;DHT22;4064;48.132;11.366;2022-07-12T13:48:26;27.90;53.50
8043;DHT22;4064;48.132;11.366;2022-07-12T13:50:52;28.00;51.60
8043;DHT22;4064;48.132;11.366;2022-07-12T13:53:18;28.10;52.40
8043;DHT22;4064;48.132;11.366;2022-07-12T13:55:44;28.20;52.50
8043;DHT22;4064;48.132;11.366;2022-07-12T13:58:10;28.40;51.70
8043;DHT22;4064;48.132;11.366;2022-07-12T14:00:40;28.30;50.40
8043;DHT22;4064;48.132;11.366;2022-07-12T14:03:06;27.80;51.20
8043;DHT22;4064;48.132;11.366;2022-07-12T14:05:33;27.60;51.30
8043;DHT22;4064;48.132;11.366;2022-07-12T14:07:59;27.70;51.90
8043;DHT22;4064;48.132;11.366;2022-07-12T14:10:25;27.70;52.70
8043;DHT22;4064;48.132;11.366;2022-07-12T14:12:52;27.90;51.90
8043;DHT22;4064;48.132;11.366;2022-07-12T14:15:18;28.00;52.10
8043;DHT22;4064;48.132;11.366;2022-07-12T14:17:47;28.30;51.30
8043;DHT22;4064;48.132;11.366;2022-07-12T14:20:15;28.40;50.30
8043;DHT22;4064;48.132;11.366;2022-07-12T14:22:42;28.30;50.60
8043;DHT22;4064;48.132;11.366;2022-07-12T14:25:08;28.30;50.40
8043;DHT22;4064;48.132;11.366;2022-07-12T14:27:36;28.20;50.40
8043;DHT22;4064;48.132;11.366;2022-07-12T14:30:03;27.80;49.90
8043;DHT22;4064;48.132;11.366;2022-07-12T14:32:29;27.70;50.70
8043;DHT22;4064;48.132;11.366;2022-07-12T14:34:55;27.50;50.70
8043;DHT22;4064;48.132;11.366;2022-07-12T14:37:20;27.10;51.20
8043;DHT22;4064;48.132;11.366;2022-07-12T14:39:46;27.00;51.90
8043;DHT22;4064;48.132;11.366;2022-07-12T14:42:14;26.90;52.60
8043;DHT22;4064;48.132;11.366;2022-07-12T14:44:40;26.70;51.50
8043;DHT22;4064;48.132;11.366;2022-07-12T14:47:06;26.70;52.20
8043;DHT22;4064;48.132;11.366;2022-07-12T14:49:31;26.70;52.10
8043;DHT22;4064;48.132;11.366;2022-07-12T14:51:57;26.70;52.00
8043;DHT22;4064;48.132;11.366;2022-07-12T14:54:23;26.60;51.70
8043;DHT22;4064;48.132;11.366;2022-07-12T14:56:49;26.50;52.00
8043;DHT22;4064;48.132;11.366;2022-07-12T14:59:15;26.40;51.90
8043;DHT22;4064;48.132;11.366;2022-07-12T15:01:41;26.20;51.50
8043;DHT22;4064;48.132;11.366;2022-07-12T15:04:06;26.10;52.10
8043;DHT22;4064;48.132;11.366;2022-07-12T15:06:33;25.90;52.10
8043;DHT22;4064;48.132;11.366;2022-07-12T15:08:59;26.00;52.70
8043;DHT22;4064;48.132;11.366;2022-07-12T15:11:25;25.80;51.60
8043;DHT22;4064;48.132;11.366;2022-07-12T15:13:50;25.80;52.10
8043;DHT22;4064;48.132;11.366;2022-07-12T15:16:16;25.80;52.60
8043;DHT22;4064;48.132;11.366;2022-07-12T15:18:42;25.80;52.50
8043;DHT22;4064;48.132;11.366;2022-07-12T15:21:07;25.80;51.20
8043;DHT22;4064;48.132;11.366;2022-07-12T15:23:34;25.70;51.20
8043;DHT22;4064;48.132;11.366;2022-07-12T15:25:59;25.60;51.50
8043;DHT22;4064;48.132;11.366;2022-07-12T15:28:25;25.50;52.20
8043;DHT22;4064;48.132;11.366;2022-07-12T15:30:52;25.50;52.20
8043;DHT22;4064;48.132;11.366;2022-07-12T15:33:17;25.50;52.40
8043;DHT22;4064;48.132;11.366;2022-07-12T15:35:43;25.50;51.90
8043;DHT22;4064;48.132;11.366;2022-07-12T15:38:09;25.40;51.90
8043;DHT22;4064;48.132;11.366;2022-07-12T15:40:35;25.40;52.40
8043;DHT22;4064;48.132;11.366;2022-07-12T15:43:02;25.30;52.10
8043;DHT22;4064;48.132;11.366;2022-07-12T15:45:28;25.30;52.20
8043;DHT22;4064;48.132;11.366;2022-07-12T15:47:54;25.20;52.40
8043;DHT22;4064;48.132;11.366;2022-07-12T15:50:20;25.20;52.40
8043;DHT22;4064;48.132;11.366;2022-07-12T15:52:45;25.20;51.50
8043;DHT22;4064;48.132;11.366;2022-07-12T15:55:30;25.10;52.10
8043;DHT22;4064;48.132;11.366;2022-07-12T15:57:58;25.10;52.10
8043;DHT22;4064;48.132;11.366;2022-07-12T16:00:24;25.10;51.60